Time;durP1;ratioP1;P1;durP2;ratioP2;P2;SDS_P1;SDS_P2;PMS_P1;PMS_P2;Temp;Humidity;BMP_temperature;BMP_pressure;BME280_temperature;BME280_humidity;BME280_pressure;Samples;Min_cycle;Max_cycle;Signal;HPM_P1;HPM_P2
2022/06/06 00:02:11;;;;;;;37.78;20.75;;;17.10;99.90;;;;;;4968909;28;20035;-80
2022/06/06 00:04:37;;;;;;;50.97;29.95;;;17.10;99.90;;;;;;4975131;28;20030;-81
2022/06/06 00:07:03;;;;;;;46.67;27.73;;;17.20;99.90;;;;;;4979587;28;20055;-81
2022/06/06 00:09:28;;;;;;;54.80;30.85;;;17.10;99.90;;;;;;4959941;28;20089;-81
2022/06/06 00:11:59;;;;;;;50.92;29.80;;;17.10;99.90;;;;;;4963550;28;20414;-81
2022/06/06 00:14:24;;;;;;;44.47;23.67;;;17.10;99.90;;;;;;4973110;28;20044;-81
2022/06/06 00:16:50;;;;;;;35.00;20.38;;;17.10;99.90;;;;;;4956682;28;20031;-81
2022/06/06 00:19:16;;;;;;;54.42;32.05;;;17.10;99.90;;;;;;4960476;28;20034;-80
2022/06/06 00:21:42;;;;;;;34.75;21.27;;;17.10;99.90;;;;;;4982539;28;20057;-80
2022/06/06 00:24:08;;;;;;;52.67;32.85;;;17.00;99.90;;;;;;4997380;28;20037;-82
2022/06/06 00:26:34;;;;;;;55.40;35.55;;;17.00;99.90;;;;;;4984672;28;20038;-81
2022/06/06 00:29:00;;;;;;;38.70;22.70;;;17.00;99.90;;;;;;4992786;28;20042;-80
2022/06/06 00:36:55;;;;;;;40.42;23.30;;;16.90;99.90;;;;;;4994555;28;20093;-80
2022/06/06 00:39:21;;;;;;;42.97;24.73;;;16.90;99.90;;;;;;4973723;28;20479;-81
2022/06/06 00:41:49;;;;;;;55.17;32.85;;;16.80;99.90;;;;;;4991980;28;20126;-79
2022/06/06 00:44:18;;;;;;;47.00;29.73;;;16.80;99.90;;;;;;4967503;28;20114;-81
2022/06/06 00:47:11;;;;;;;55.05;34.55;;;16.80;99.90;;;;;;4997708;28;20045;-80
2022/06/06 00:49:42;;;;;;;53.83;26.25;;;16.80;99.90;;;;;;4986861;28;20027;-80
2022/06/06 00:52:33;;;;;;;50.88;31.45;;;16.70;99.90;;;;;;4960766;28;20053;-80
2022/06/06 00:55:06;;;;;;;37.60;19.40;;;16.70;99.90;;;;;;4984770;28;20062;-81
2022/06/06 00:57:32;;;;;;;37.92;21.60;;;16.70;99.90;;;;;;4996379;28;20026;-81
2022/06/06 00:59:59;;;;;;;52.20;33.28;;;16.70;99.90;;;;;;4980305;28;20036;-80
2022/06/06 01:02:24;;;;;;;55.72;31.45;;;16.60;99.90;;;;;;4979558;28;20038;-80
2022/06/06 01:04:50;;;;;;;46.42;29.50;;;16.60;99.90;;;;;;4965512;28;20092;-80
2022/06/06 01:07:17;;;;;;;55.00;31.33;;;16.60;99.90;;;;;;4978507;28;20411;-81
2022/06/06 01:09:43;;;;;;;50.90;30.73;;;16.60;99.90;;;;;;4963775;28;20033;-81
2022/06/06 01:12:13;;;;;;;52.75;31.30;;;16.60;99.90;;;;;;4961862;28;20034;-81
2022/06/06 01:14:42;;;;;;;47.42;29.45;;;16.60;99.90;;;;;;4978987;28;20041;-83
2022/06/06 01:17:20;;;;;;;46.15;27.42;;;16.60;99.90;;;;;;4992774;28;20054;-81
2022/06/06 01:20:13;;;;;;;52.38;27.15;;;16.60;99.90;;;;;;4989128;28;20030;-81
2022/06/06 01:22:59;;;;;;;44.58;26.02;;;16.60;99.90;;;;;;4966905;28;20040;-80
2022/06/06 01:25:49;;;;;;;33.23;19.30;;;16.50;99.90;;;;;;4997247;28;20382;-81
2022/06/06 01:28:48;;;;;;;45.15;24.50;;;16.50;99.90;;;;;;4992778;28;20030;-80
2022/06/06 01:31:21;;;;;;;43.60;24.83;;;16.50;99.90;;;;;;4976578;28;20027;-80
2022/06/06 01:34:00;;;;;;;40.15;19.95;;;16.50;99.90;;;;;;4981751;28;20038;-81
2022/06/06 01:36:27;;;;;;;42.83;25.65;;;16.50;99.90;;;;;;4980796;28;20034;-80
2022/06/06 01:38:53;;;;;;;42.47;23.02;;;16.40;99.90;;;;;;4985611;28;20035;-81
2022/06/06 01:41:28;;;;;;;37.75;24.17;;;16.40;99.90;;;;;;4964545;28;20034;-81
2022/06/06 01:43:58;;;;;;;36.33;21.40;;;16.40;99.90;;;;;;5002392;28;20036;-81
2022/06/06 01:46:26;;;;;;;42.47;27.13;;;16.40;99.90;;;;;;4985133;28;20034;-81
2022/06/06 01:48:53;;;;;;;37.20;21.75;;;16.30;99.90;;;;;;4966694;28;20026;-81
2022/06/06 01:51:22;;;;;;;37.85;22.35;;;16.30;99.90;;;;;;4984962;28;20048;-80
2022/06/06 01:53:47;;;;;;;33.28;20.42;;;16.20;99.90;;;;;;4969001;28;20042;-80
2022/06/06 01:56:18;;;;;;;40.75;25.38;;;16.10;99.90;;;;;;4964878;28;20061;-82
2022/06/06 01:58:43;;;;;;;32.17;21.42;;;16.20;99.90;;;;;;4965148;28;20026;-81
2022/06/06 02:01:10;;;;;;;21.70;11.45;;;16.10;99.90;;;;;;5000663;28;20413;-81
2022/06/06 02:03:36;;;;;;;38.55;23.85;;;16.00;99.90;;;;;;4960130;28;20034;-81
2022/06/06 02:06:02;;;;;;;28.75;17.60;;;16.00;99.90;;;;;;4977921;28;20036;-81
2022/06/06 02:08:28;;;;;;;37.83;21.98;;;16.00;99.90;;;;;;4979945;28;20037;-80
2022/06/06 02:10:53;;;;;;;31.63;18.95;;;16.00;99.90;;;;;;4979195;28;20030;-80
2022/06/06 02:13:19;;;;;;;33.65;18.08;;;15.90;99.90;;;;;;4966281;28;20116;-80
2022/06/06 02:15:45;;;;;;;40.08;24.70;;;15.90;99.90;;;;;;4964016;28;20041;-81
2022/06/06 02:18:10;;;;;;;36.00;22.17;;;15.90;99.90;;;;;;4976515;28;20395;-82
2022/06/06 02:20:36;;;;;;;31.23;16.80;;;15.80;99.90;;;;;;4958067;28;20042;-82
2022/06/06 02:23:02;;;;;;;41.83;24.20;;;15.80;99.90;;;;;;4976036;28;20064;-82
2022/06/06 02:25:28;;;;;;;36.25;20.27;;;15.80;99.90;;;;;;4959271;28;20027;-80
2022/06/06 02:27:54;;;;;;;35.97;19.98;;;15.70;99.90;;;;;;4961823;28;20030;-82
2022/06/06 02:30:22;;;;;;;32.60;20.40;;;15.70;99.90;;;;;;4978969;28;20034;-82
2022/06/06 02:32:47;;;;;;;36.58;20.98;;;15.70;99.90;;;;;;4992470;28;20126;-82
2022/06/06 02:35:17;;;;;;;34.13;18.38;;;15.70;99.90;;;;;;4993393;28;20163;-78
2022/06/06 02:37:44;;;;;;;33.20;21.50;;;15.70;99.90;;;;;;4976740;28;20034;-79
2022/06/06 02:40:10;;;;;;;30.83;19.70;;;15.60;99.90;;;;;;4975406;28;20562;-79
2022/06/06 02:42:36;;;;;;;30.83;19.50;;;15.70;99.90;;;;;;4954985;28;20057;-79
2022/06/06 02:45:02;;;;;;;35.72;21.92;;;15.80;99.90;;;;;;4993822;28;20041;-79
2022/06/06 02:47:29;;;;;;;31.30;19.25;;;15.80;99.90;;;;;;4974018;28;20080;-78
2022/06/06 02:49:54;;;;;;;29.77;19.90;;;15.70;99.90;;;;;;4963568;28;20383;-79
2022/06/06 02:52:20;;;;;;;43.60;25.70;;;15.70;99.90;;;;;;4977740;28;20064;-83
2022/06/06 02:54:46;;;;;;;29.58;20.10;;;15.70;99.90;;;;;;4960628;28;20049;-83
2022/06/06 02:57:11;;;;;;;31.67;19.45;;;15.60;99.90;;;;;;4976026;28;20030;-82
2022/06/06 02:59:37;;;;;;;35.78;21.95;;;15.60;99.90;;;;;;4990707;28;20038;-82
2022/06/06 03:02:02;;;;;;;34.00;20.17;;;15.50;99.90;;;;;;4976466;28;20505;-83
2022/06/06 03:04:28;;;;;;;31.13;19.70;;;15.60;99.90;;;;;;4988872;28;20494;-83
2022/06/06 03:07:21;;;;;;;25.38;16.45;;;15.60;99.90;;;;;;4958560;28;20116;-82
2022/06/06 03:10:02;;;;;;;29.33;17.38;;;15.60;99.90;;;;;;4997922;28;20125;-82
2022/06/06 03:12:40;;;;;;;30.73;19.95;;;15.50;99.90;;;;;;4974968;28;20088;-83
2022/06/06 03:15:26;;;;;;;26.63;16.25;;;15.50;99.90;;;;;;4987768;28;20037;-82
2022/06/06 03:20:56;;;;;;;31.25;20.08;;;15.50;99.90;;;;;;4980801;28;20041;-82
2022/06/06 03:23:46;;;;;;;26.33;17.20;;;15.60;99.90;;;;;;4994487;28;20038;-81
2022/06/06 03:26:31;;;;;;;33.10;19.55;;;15.50;99.90;;;;;;4976894;28;20037;-82
2022/06/06 03:29:24;;;;;;;31.58;18.20;;;15.60;99.90;;;;;;4994531;28;20095;-83
2022/06/06 03:32:05;;;;;;;31.23;17.30;;;15.50;99.90;;;;;;4982284;28;20125;-82
2022/06/06 03:34:34;;;;;;;31.23;18.70;;;15.50;99.90;;;;;;4977409;28;20041;-82
2022/06/06 03:37:21;;;;;;;27.63;16.83;;;15.50;99.90;;;;;;4972339;28;20045;-81
2022/06/06 03:39:47;;;;;;;32.00;19.08;;;15.50;99.90;;;;;;4993505;28;20046;-82
2022/06/06 03:42:30;;;;;;;35.15;19.33;;;15.50;99.90;;;;;;4993575;28;20058;-82
2022/06/06 03:45:02;;;;;;;28.73;18.60;;;15.60;99.90;;;;;;4971690;28;20561;-81
2022/06/06 03:47:53;;;;;;;26.25;15.55;;;15.60;99.90;;;;;;5006844;28;20074;-82
2022/06/06 03:50:26;;;;;;;27.02;16.70;;;15.60;99.90;;;;;;4980132;28;20184;-81
2022/06/06 03:52:58;;;;;;;28.25;16.17;;;15.50;99.90;;;;;;4990648;28;20054;-81
2022/06/06 03:55:58;;;;;;;23.33;13.40;;;15.60;99.90;;;;;;4964160;28;20027;-82
2022/06/06 03:58:23;;;;;;;27.98;16.65;;;15.60;99.90;;;;;;4990948;28;20030;-81
2022/06/06 04:00:49;;;;;;;26.02;16.00;;;15.70;99.90;;;;;;4954034;28;20414;-82
2022/06/06 04:03:15;;;;;;;27.05;14.48;;;15.60;99.90;;;;;;4971252;28;20409;-81
2022/06/06 04:05:41;;;;;;;26.67;14.07;;;15.60;99.90;;;;;;4991490;28;20054;-81
2022/06/06 04:08:08;;;;;;;15.63;7.50;;;15.60;99.90;;;;;;4979395;28;20053;-81
2022/06/06 04:11:30;;;;;;;23.40;12.60;;;15.60;99.90;;;;;;4965738;28;20038;-80
2022/06/06 04:14:17;;;;;;;22.90;13.52;;;15.60;99.90;;;;;;4944553;28;20062;-81
2022/06/06 04:16:46;;;;;;;21.58;12.20;;;15.70;99.90;;;;;;4928731;28;20035;-82
2022/06/06 04:19:24;;;;;;;18.48;10.43;;;15.70;99.90;;;;;;4977566;28;20034;-82
2022/06/06 04:22:08;;;;;;;18.20;11.70;;;15.60;99.90;;;;;;4975714;28;20052;-82
2022/06/06 04:24:54;;;;;;;16.02;9.77;;;15.50;99.90;;;;;;4987020;28;20482;-82
2022/06/06 04:27:44;;;;;;;18.17;10.43;;;15.60;99.90;;;;;;4984021;28;20041;-82
2022/06/06 04:30:19;;;;;;;17.98;7.57;;;15.60;99.90;;;;;;4975457;28;20057;-82
2022/06/06 04:32:55;;;;;;;18.10;11.13;;;15.60;99.90;;;;;;4983455;28;20039;-82
2022/06/06 04:35:44;;;;;;;13.82;8.95;;;15.60;99.90;;;;;;4975224;28;20049;-82
2022/06/06 04:38:28;;;;;;;14.10;8.52;;;15.60;99.90;;;;;;4995066;28;20390;-82
2022/06/06 04:40:53;;;;;;;15.55;9.02;;;15.60;99.90;;;;;;4989717;28;20035;-82
2022/06/06 04:43:33;;;;;;;14.65;8.90;;;15.70;99.90;;;;;;4989542;28;20030;-82
2022/06/06 04:46:37;;;;;;;13.70;8.30;;;15.60;99.90;;;;;;4988813;28;20068;-82
2022/06/06 04:49:04;;;;;;;13.00;6.32;;;15.60;99.90;;;;;;4971074;28;20517;-82
2022/06/06 04:51:31;;;;;;;13.38;8.30;;;15.70;99.90;;;;;;4972815;28;20572;-81
2022/06/06 04:53:56;;;;;;;14.85;8.60;;;15.80;99.90;;;;;;4980364;28;20033;-81
2022/06/06 04:56:22;;;;;;;11.20;7.72;;;15.80;99.90;;;;;;4979090;28;20030;-82
2022/06/06 04:58:49;;;;;;;13.20;7.78;;;15.90;99.90;;;;;;4969076;28;20094;-81
2022/06/06 05:01:15;;;;;;;12.38;7.40;;;15.90;99.90;;;;;;4967700;28;20022;-82
2022/06/06 05:03:41;;;;;;;14.25;8.43;;;15.90;99.90;;;;;;4960309;28;20203;-82
2022/06/06 05:06:44;;;;;;;15.50;7.63;;;15.90;99.90;;;;;;4963652;28;20045;-82
2022/06/06 05:09:46;;;;;;;10.63;5.97;;;15.90;99.90;;;;;;4991196;28;20023;-82
2022/06/06 05:12:18;;;;;;;12.20;6.97;;;15.90;99.90;;;;;;4979190;28;20045;-81
2022/06/06 05:15:12;;;;;;;12.82;8.48;;;15.90;99.90;;;;;;4999599;28;20034;-82
2022/06/06 05:17:56;;;;;;;13.07;8.15;;;15.90;99.90;;;;;;4990461;28;20031;-81
2022/06/06 05:20:58;;;;;;;13.57;8.32;;;15.90;99.90;;;;;;4992599;28;20516;-82
2022/06/06 05:23:54;;;;;;;13.55;7.95;;;16.00;99.90;;;;;;4997236;28;20039;-82
2022/06/06 05:26:50;;;;;;;12.52;7.47;;;16.00;99.90;;;;;;4981026;28;20113;-81
2022/06/06 05:29:22;;;;;;;8.90;5.32;;;16.10;99.90;;;;;;4993608;28;20092;-82
2022/06/06 05:32:06;;;;;;;10.43;6.90;;;16.20;99.90;;;;;;4976586;28;20457;-82
2022/06/06 05:34:34;;;;;;;7.90;4.32;;;16.40;99.90;;;;;;4996228;28;20033;-82
2022/06/06 05:37:29;;;;;;;9.00;4.55;;;16.40;99.90;;;;;;4983606;28;20094;-82
2022/06/06 05:40:01;;;;;;;11.18;7.72;;;16.50;99.90;;;;;;4978200;28;20037;-82
2022/06/06 05:42:36;;;;;;;11.77;7.80;;;16.60;99.90;;;;;;4993663;28;20442;-82
2022/06/06 05:45:06;;;;;;;6.82;5.05;;;16.60;99.90;;;;;;4979755;28;20034;-82
2022/06/06 05:47:40;;;;;;;10.60;7.03;;;16.60;99.90;;;;;;4984654;28;20041;-82
2022/06/06 05:50:06;;;;;;;11.48;8.10;;;16.60;99.90;;;;;;4955962;28;20031;-82
2022/06/06 05:52:34;;;;;;;12.23;8.32;;;16.70;99.90;;;;;;4995536;28;20100;-82
2022/06/06 05:55:22;;;;;;;12.63;7.55;;;16.70;99.90;;;;;;4998289;28;20027;-81
2022/06/06 05:58:00;;;;;;;15.10;8.95;;;16.80;99.90;;;;;;4970187;28;20118;-81
2022/06/06 06:01:09;;;;;;;11.88;7.60;;;16.70;99.90;;;;;;5005067;28;20026;-81
2022/06/06 06:03:51;;;;;;;10.63;5.70;;;16.70;99.90;;;;;;5002227;28;20042;-81
2022/06/06 06:06:32;;;;;;;9.48;6.38;;;16.90;99.90;;;;;;4987508;28;20030;-81
2022/06/06 06:09:01;;;;;;;16.52;5.35;;;17.00;99.90;;;;;;5002188;28;20080;-81
2022/06/06 06:11:29;;;;;;;14.45;6.25;;;16.90;99.90;;;;;;4999390;28;20113;-81
2022/06/06 06:14:05;;;;;;;9.90;5.63;;;17.10;99.90;;;;;;4998292;28;20769;-81
2022/06/06 06:16:32;;;;;;;12.35;7.03;;;17.40;99.90;;;;;;4998216;28;20034;-81
2022/06/06 06:19:08;;;;;;;10.95;6.53;;;17.40;99.90;;;;;;4984967;28;20031;-81
2022/06/06 06:21:39;;;;;;;6.28;4.45;;;17.60;99.90;;;;;;4969668;28;20038;-81
2022/06/06 06:24:09;;;;;;;9.68;5.95;;;17.70;99.90;;;;;;5002787;28;20031;-80
2022/06/06 06:26:36;;;;;;;7.55;5.00;;;17.70;99.90;;;;;;4979018;28;20542;-80
2022/06/06 06:29:04;;;;;;;6.97;4.63;;;18.30;99.90;;;;;;4965009;28;20029;-81
2022/06/06 06:31:32;;;;;;;7.18;5.53;;;18.70;99.90;;;;;;4984436;28;20042;-82
2022/06/06 06:34:28;;;;;;;11.30;5.25;;;18.80;99.90;;;;;;4984712;28;20026;-81
2022/06/06 06:37:19;;;;;;;4.30;2.88;;;18.60;99.90;;;;;;4989485;28;20065;-81
2022/06/06 06:40:06;;;;;;;9.30;5.10;;;19.20;99.90;;;;;;4998529;28;20035;-81
2022/06/06 06:42:50;;;;;;;5.32;2.95;;;19.30;99.90;;;;;;5004346;28;20037;-81
2022/06/06 06:45:24;;;;;;;9.93;5.68;;;19.20;99.90;;;;;;4995327;28;20037;-81
2022/06/06 06:47:52;;;;;;;7.13;3.83;;;18.90;99.90;;;;;;4979000;28;20050;-81
2022/06/06 06:50:44;;;;;;;10.75;4.53;;;19.10;99.90;;;;;;4986405;28;20038;-81
2022/06/06 06:53:38;;;;;;;6.30;4.13;;;19.50;99.90;;;;;;4993734;28;20066;-81
2022/06/06 06:56:17;;;;;;;5.85;3.85;;;19.50;99.90;;;;;;4968232;28;20395;-80
2022/06/06 06:58:51;;;;;;;4.97;3.53;;;20.00;99.90;;;;;;4984257;28;20034;-81
2022/06/06 07:10:48;;;;;;;5.38;3.47;;;20.80;99.90;;;;;;4997931;28;20549;-81
2022/06/06 07:13:21;;;;;;;7.38;3.60;;;20.90;99.90;;;;;;4986576;28;20391;-81
2022/06/06 07:15:57;;;;;;;4.45;2.60;;;20.30;99.90;;;;;;4965802;28;20086;-81
2022/06/06 07:18:26;;;;;;;4.72;3.67;;;20.50;99.90;;;;;;4992080;28;20057;-81
2022/06/06 07:20:52;;;;;;;7.38;2.78;;;20.60;99.90;;;;;;4991362;28;20041;-81
2022/06/06 07:23:17;;;;;;;4.15;2.85;;;20.70;99.90;;;;;;4988785;28;20030;-81
2022/06/06 07:25:48;;;;;;;4.43;2.50;;;20.80;99.90;;;;;;4969797;28;20036;-82
2022/06/06 07:28:15;;;;;;;5.13;3.60;;;21.00;99.90;;;;;;5003781;28;20030;-81
2022/06/06 07:31:05;;;;;;;5.05;2.88;;;21.10;99.90;;;;;;4989894;28;20090;-81
2022/06/06 07:33:34;;;;;;;3.42;2.67;;;21.30;99.90;;;;;;5004374;28;20037;-81
2022/06/06 07:36:18;;;;;;;6.13;3.47;;;21.90;99.80;;;;;;5006261;28;20034;-81
2022/06/06 07:38:58;;;;;;;3.50;3.05;;;21.90;98.70;;;;;;5002820;28;20520;-82
2022/06/06 07:41:37;;;;;;;3.17;2.50;;;21.50;97.90;;;;;;5000950;28;20082;-81
2022/06/06 07:44:22;;;;;;;6.10;2.78;;;21.10;97.60;;;;;;4989008;28;20046;-80
2022/06/06 07:47:05;;;;;;;2.97;2.58;;;21.10;97.10;;;;;;5001113;28;20077;-81
2022/06/06 07:49:51;;;;;;;7.03;2.40;;;22.00;98.30;;;;;;4989591;28;20022;-81
2022/06/06 07:52:41;;;;;;;5.55;2.05;;;22.30;99.10;;;;;;4983709;28;20046;-81
2022/06/06 07:55:25;;;;;;;3.72;2.20;;;22.00;95.60;;;;;;5002842;28;20027;-81
2022/06/06 07:58:08;;;;;;;3.00;2.08;;;22.30;96.40;;;;;;5006502;28;20027;-81
2022/06/06 08:00:36;;;;;;;2.55;1.80;;;22.20;95.70;;;;;;5006461;28;20029;-82
2022/06/06 08:03:40;;;;;;;3.38;1.60;;;22.40;95.50;;;;;;4969128;28;20065;-81
2022/06/06 08:06:19;;;;;;;2.13;0.82;;;22.50;94.20;;;;;;4996089;28;20038;-81
2022/06/06 08:09:24;;;;;;;1.83;1.70;;;22.50;95.80;;;;;;4981173;28;20042;-82
2022/06/06 08:12:08;;;;;;;5.28;1.60;;;22.40;93.60;;;;;;5021770;28;20030;-82
2022/06/06 08:15:10;;;;;;;6.40;2.78;;;22.20;95.80;;;;;;4981751;28;20050;-82
2022/06/06 08:17:48;;;;;;;2.33;1.77;;;22.60;94.70;;;;;;5001866;28;20038;-83
2022/06/06 08:20:42;;;;;;;3.72;1.73;;;22.70;96.20;;;;;;5003145;28;20056;-83
2022/06/06 08:23:08;;;;;;;4.60;1.50;;;22.50;92.30;;;;;;5002202;28;20030;-82
2022/06/06 08:25:36;;;;;;;1.20;0.98;;;22.30;92.60;;;;;;4967772;28;20035;-82
2022/06/06 08:28:02;;;;;;;1.98;1.50;;;22.90;93.90;;;;;;4964443;28;20121;-83
2022/06/06 08:30:28;;;;;;;1.92;1.75;;;23.30;94.50;;;;;;4976800;28;20038;-82
2022/06/06 08:32:53;;;;;;;3.55;1.88;;;23.70;94.10;;;;;;4976869;28;20089;-83
2022/06/06 08:35:19;;;;;;;1.30;1.20;;;23.80;94.80;;;;;;4980408;28;20038;-83
2022/06/06 08:38:23;;;;;;;2.35;1.25;;;23.50;91.30;;;;;;4962139;28;20041;-83
2022/06/06 08:40:57;;;;;;;2.78;0.98;;;23.30;90.00;;;;;;4984041;28;20162;-83
2022/06/06 08:43:45;;;;;;;1.60;1.23;;;23.60;92.90;;;;;;4985254;28;20040;-83
2022/06/06 08:46:11;;;;;;;1.95;0.80;;;23.40;90.20;;;;;;4981991;28;20060;-83
2022/06/06 08:48:58;;;;;;;1.90;0.93;;;23.30;85.90;;;;;;4996152;28;20034;-84
2022/06/06 08:51:24;;;;;;;1.30;1.10;;;23.90;85.40;;;;;;4996580;28;20034;-84
2022/06/06 08:54:13;;;;;;;2.00;0.88;;;24.50;88.90;;;;;;4974197;28;20038;-84
2022/06/06 08:57:12;;;;;;;1.40;0.70;;;24.60;85.30;;;;;;4958841;28;20069;-84
2022/06/06 09:00:16;;;;;;;1.48;1.00;;;23.80;83.00;;;;;;4991456;28;20038;-84
2022/06/06 09:02:59;;;;;;;1.23;0.90;;;23.70;84.50;;;;;;5004564;28;20117;-84
2022/06/06 09:06:02;;;;;;;1.58;0.90;;;23.80;83.00;;;;;;4995378;28;20148;-84
2022/06/06 09:09:14;;;;;;;3.83;0.95;;;24.40;86.60;;;;;;4993828;28;20045;-84
2022/06/06 09:12:33;;;;;;;1.00;0.90;;;24.70;84.00;;;;;;4971127;28;20030;-84
2022/06/06 09:15:11;;;;;;;2.15;0.77;;;24.30;87.70;;;;;;4909930;29;20446;-84
2022/06/06 09:18:10;;;;;;;1.02;0.80;;;24.70;86.30;;;;;;4967101;28;20513;-84
2022/06/06 09:20:41;;;;;;;1.38;0.77;;;24.70;81.10;;;;;;5010571;28;20054;-84
2022/06/06 09:23:16;;;;;;;2.63;0.80;;;24.70;82.90;;;;;;4989897;28;20393;-85
2022/06/06 09:25:46;;;;;;;1.65;0.82;;;24.50;81.50;;;;;;4984962;28;20047;-84
2022/06/06 09:28:49;;;;;;;1.05;0.70;;;25.00;83.90;;;;;;4968405;28;20036;-84
2022/06/06 09:31:44;;;;;;;2.50;0.73;;;24.30;82.00;;;;;;5008874;28;20474;-85
2022/06/06 09:34:32;;;;;;;4.25;0.52;;;25.10;84.50;;;;;;4987841;28;20026;-85
2022/06/06 09:37:19;;;;;;;1.00;0.90;;;25.40;83.00;;;;;;4987220;28;20035;-85
2022/06/06 09:39:57;;;;;;;0.50;0.50;;;25.10;79.20;;;;;;4991361;28;20046;-85
2022/06/06 09:42:34;;;;;;;0.93;0.65;;;25.40;82.70;;;;;;4977000;28;20397;-86
2022/06/06 09:45:06;;;;;;;1.50;0.80;;;25.20;80.30;;;;;;4975150;28;20034;-85
2022/06/06 09:47:43;;;;;;;1.17;0.77;;;25.30;81.30;;;;;;4990111;28;20041;-85
2022/06/06 09:50:46;;;;;;;0.40;0.40;;;25.50;80.00;;;;;;4989709;28;20042;-85
2022/06/06 09:59:01;;;;;;;2.85;0.60;;;25.40;78.60;;;;;;4996940;28;20038;-85
2022/06/06 09:59:33;;;;;;;0.22;0.22;;;24.80;74.90;;;;;;4996834;28;20045;-85
2022/06/06 10:02:19;;;;;;;0.50;0.50;;;25.10;77.00;;;;;;4993001;28;20041;-86
2022/06/06 10:05:10;;;;;;;1.60;0.65;;;25.10;74.90;;;;;;4982852;28;20398;-85
2022/06/06 10:08:12;;;;;;;1.98;0.65;;;25.10;75.30;;;;;;4973772;28;20031;-85
2022/06/06 10:11:13;;;;;;;0.65;0.60;;;25.20;74.60;;;;;;4990535;28;20049;-86
2022/06/06 10:13:47;;;;;;;0.93;0.50;;;25.20;74.40;;;;;;4993598;28;20599;-86
2022/06/06 10:16:24;;;;;;;0.90;0.57;;;25.30;74.40;;;;;;5009517;28;20078;-84
2022/06/06 10:18:50;;;;;;;4.15;0.47;;;25.20;74.60;;;;;;4981212;28;20041;-86
2022/06/06 10:21:42;;;;;;;2.15;0.80;;;25.00;71.90;;;;;;4996143;28;20038;-86
2022/06/06 10:24:29;;;;;;;0.75;0.50;;;25.10;74.00;;;;;;4991968;28;20034;-85
2022/06/06 10:27:15;;;;;;;1.25;0.70;;;25.10;72.00;;;;;;4981294;28;20042;-86
2022/06/06 10:30:18;;;;;;;1.55;0.60;;;25.00;71.50;;;;;;4988282;28;20037;-86
2022/06/06 10:33:10;;;;;;;2.83;0.60;;;25.60;75.60;;;;;;4914697;29;20050;-87
2022/06/06 10:35:49;;;;;;;1.67;0.50;;;26.00;71.80;;;;;;4957743;28;20037;-86
2022/06/06 10:38:30;;;;;;;2.72;0.82;;;25.80;71.70;;;;;;4989841;28;20022;-86
2022/06/06 10:41:14;;;;;;;1.20;0.57;;;25.80;73.10;;;;;;4960932;28;20427;-87
2022/06/06 10:43:49;;;;;;;2.28;0.75;;;25.80;72.40;;;;;;4989768;28;20038;-86
2022/06/06 10:46:35;;;;;;;1.30;0.80;;;26.00;71.10;;;;;;4987637;28;20038;-86
2022/06/06 10:49:00;;;;;;;;;;;26.20;73.30;;;;;;4979541;28;20486;-86
2022/06/06 10:51:46;;;;;;;0.80;0.50;;;26.40;71.10;;;;;;4994112;28;19928;-85
2022/06/06 10:54:18;;;;;;;;;;;26.90;73.50;;;;;;4988556;28;20085;-85
2022/06/06 10:56:52;;;;;;;0.43;0.43;;;26.60;67.10;;;;;;4994685;28;19910;-86
2022/06/06 10:59:24;;;;;;;0.98;0.60;;;26.60;68.20;;;;;;4971284;28;20037;-87
2022/06/06 11:01:55;;;;;;;0.63;0.60;;;27.20;66.80;;;;;;4983709;28;20065;-87
2022/06/06 11:04:29;;;;;;;2.20;0.70;;;27.10;67.20;;;;;;4965805;28;20152;-85
2022/06/06 11:07:08;;;;;;;1.13;0.43;;;27.70;67.30;;;;;;4994363;28;20078;-85
2022/06/06 11:09:44;;;;;;;0.98;0.47;;;27.50;66.10;;;;;;4988979;28;20030;-85
2022/06/06 11:12:31;;;;;;;1.25;0.50;;;27.20;65.30;;;;;;4986493;28;20033;-85
2022/06/06 11:14:56;;;;;;;0.98;0.57;;;26.80;63.80;;;;;;4993309;28;20042;-85
2022/06/06 11:17:47;;;;;;;1.40;0.50;;;26.70;64.70;;;;;;4981617;28;20084;-86
2022/06/06 11:20:55;;;;;;;1.20;0.50;;;26.60;66.30;;;;;;4993623;28;20102;-85
2022/06/06 11:23:21;;;;;;;0.82;0.50;;;26.10;66.10;;;;;;4982547;28;20080;-85
2022/06/06 11:26:30;;;;;;;1.25;0.70;;;26.60;67.80;;;;;;4987131;28;20495;-85
2022/06/06 11:29:22;;;;;;;0.77;0.63;;;26.80;65.80;;;;;;4964934;28;20046;-85
2022/06/06 11:32:15;;;;;;;0.90;0.70;;;27.30;66.40;;;;;;4979784;28;20035;-85
2022/06/06 11:34:59;;;;;;;2.00;0.57;;;27.30;63.50;;;;;;4993056;28;20026;-85
2022/06/06 11:37:49;;;;;;;1.35;0.57;;;27.00;62.80;;;;;;4985534;28;20455;-86
2022/06/06 11:40:40;;;;;;;1.10;0.45;;;25.90;62.90;;;;;;4990141;28;20031;-86
2022/06/06 11:43:20;;;;;;;0.45;0.40;;;25.30;65.50;;;;;;4931637;28;20054;-86
2022/06/06 11:46:03;;;;;;;0.40;0.40;;;25.20;66.30;;;;;;4989678;28;20042;-86
2022/06/06 11:48:48;;;;;;;0.82;0.52;;;25.00;66.70;;;;;;4973643;28;20041;-86
2022/06/06 11:51:20;;;;;;;4.03;0.70;;;25.10;67.50;;;;;;4992285;28;20065;-85
2022/06/06 11:53:48;;;;;;;2.53;0.63;;;24.90;71.90;;;;;;4992115;28;20093;-85
2022/06/06 11:56:41;;;;;;;1.52;0.73;;;24.50;73.60;;;;;;4996463;28;20397;-85
2022/06/06 11:59:29;;;;;;;1.48;0.55;;;24.10;75.50;;;;;;4968483;28;20580;-86
2022/06/06 12:02:22;;;;;;;1.08;0.50;;;23.60;76.40;;;;;;4975861;28;20038;-85
2022/06/06 12:05:08;;;;;;;1.35;0.77;;;23.30;77.70;;;;;;4967163;28;20087;-84
2022/06/06 12:07:43;;;;;;;3.08;1.00;;;23.20;78.70;;;;;;4971342;28;20384;-85
2022/06/06 12:10:53;;;;;;;1.60;0.70;;;22.70;78.60;;;;;;4991280;28;20390;-86
2022/06/06 12:13:31;;;;;;;1.40;0.60;;;22.70;79.40;;;;;;4975388;28;20254;-86
2022/06/06 12:16:11;;;;;;;1.27;0.85;;;22.30;79.30;;;;;;4990722;28;20058;-85
2022/06/06 12:18:49;;;;;;;0.57;0.57;;;22.10;79.50;;;;;;4988669;28;20040;-86
2022/06/06 12:21:38;;;;;;;1.08;0.50;;;22.50;80.00;;;;;;4955209;28;20097;-86
2022/06/06 12:24:08;;;;;;;0.75;0.50;;;22.90;79.20;;;;;;4991114;28;20035;-86
2022/06/06 12:27:12;;;;;;;2.17;0.50;;;23.20;77.50;;;;;;4992697;28;20549;-86
2022/06/06 12:29:59;;;;;;;0.40;0.30;;;23.80;79.40;;;;;;4978979;28;20490;-86
2022/06/06 12:32:32;;;;;;;0.80;0.45;;;24.10;77.70;;;;;;4992335;28;20026;-85
2022/06/06 12:35:04;;;;;;;1.70;0.60;;;24.30;76.20;;;;;;4978628;28;20494;-86
2022/06/06 12:37:45;;;;;;;1.70;0.28;;;24.40;77.40;;;;;;4971623;28;20031;-86
2022/06/06 12:40:20;;;;;;;0.88;0.63;;;24.60;75.80;;;;;;4973873;28;20375;-86
2022/06/06 12:43:09;;;;;;;1.00;0.60;;;24.90;72.70;;;;;;4986644;28;20040;-86
2022/06/06 12:45:43;;;;;;;0.70;0.40;;;25.10;73.10;;;;;;4973921;28;20567;-84
2022/06/06 12:48:25;;;;;;;1.45;0.60;;;25.00;71.40;;;;;;4986684;28;20027;-86
2022/06/06 12:51:12;;;;;;;0.65;0.60;;;25.30;71.10;;;;;;4967365;28;20043;-86
2022/06/06 12:53:47;;;;;;;3.38;0.75;;;25.50;69.00;;;;;;4978457;28;20066;-86
2022/06/06 12:56:45;;;;;;;3.38;0.70;;;25.70;71.90;;;;;;4979494;28;20490;-86
2022/06/06 12:59:25;;;;;;;2.53;1.25;;;26.10;70.20;;;;;;4984175;28;20057;-87
2022/06/06 13:02:15;;;;;;;4.55;1.10;;;26.40;70.90;;;;;;4989384;28;20533;-87
2022/06/06 13:04:44;;;;;;;0.60;0.60;;;26.50;69.40;;;;;;4999633;28;20026;-86
2022/06/06 13:07:29;;;;;;;3.20;0.80;;;26.70;69.30;;;;;;4974088;28;20034;-87
2022/06/06 13:09:54;;;;;;;0.65;0.40;;;27.00;67.80;;;;;;4991588;28;20061;-86
2022/06/06 13:13:00;;;;;;;0.65;0.50;;;26.90;67.90;;;;;;4991171;28;20034;-87
2022/06/06 13:15:40;;;;;;;0.50;0.50;;;27.10;64.80;;;;;;4981910;28;20785;-86
2022/06/06 13:18:42;;;;;;;1.38;0.88;;;27.20;66.00;;;;;;4985672;28;20122;-86
2022/06/06 13:21:26;;;;;;;2.65;0.52;;;27.10;64.10;;;;;;4991609;28;20023;-87
2022/06/06 13:24:07;;;;;;;0.80;0.52;;;27.10;65.70;;;;;;4974929;28;20179;-87
2022/06/06 13:26:50;;;;;;;1.02;0.80;;;27.10;63.20;;;;;;4995383;28;20041;-87
2022/06/06 13:29:31;;;;;;;4.82;0.77;;;26.90;62.00;;;;;;4980838;28;20085;-86
2022/06/06 13:32:12;;;;;;;6.13;1.30;;;26.90;63.10;;;;;;4954229;28;20041;-86
2022/06/06 13:34:56;;;;;;;1.20;0.60;;;26.70;63.00;;;;;;4987088;28;20121;-86
2022/06/06 13:38:20;;;;;;;2.53;0.73;;;27.00;63.00;;;;;;4989705;28;20042;-86
2022/06/06 13:40:49;;;;;;;0.93;0.65;;;27.30;62.20;;;;;;4895184;28;20040;-86
2022/06/06 13:43:35;;;;;;;1.08;0.75;;;27.00;62.40;;;;;;4965194;28;20092;-85
2022/06/06 13:46:09;;;;;;;;;;;26.80;62.60;;;;;;4982646;28;20038;-85
2022/06/06 13:48:59;;;;;;;0.68;0.50;;;26.60;62.50;;;;;;4992199;28;20796;-84
2022/06/06 13:51:46;;;;;;;1.80;0.68;;;26.70;62.20;;;;;;4990153;28;20498;-87
2022/06/06 13:54:32;;;;;;;3.00;0.68;;;27.40;61.20;;;;;;4990546;28;20494;-86
2022/06/06 13:57:10;;;;;;;1.30;0.50;;;27.60;63.10;;;;;;4976982;28;20038;-86
2022/06/06 13:59:56;;;;;;;0.80;0.50;;;27.70;60.50;;;;;;4990301;28;20442;-85
2022/06/06 14:02:43;;;;;;;2.70;0.63;;;27.90;60.70;;;;;;4989055;28;20089;-86